sensor_id;sensor_type;location;lat;lon;timestamp;P1;durP1;ratioP1;P2;durP2;ratioP2
1344;SDS011;15375;48.540;9.268;2022-09-09T00:04:28;3.63;;;1.27;;
1344;SDS011;15375;48.540;9.268;2022-09-09T00:06:50;2.27;;;1.23;;
1344;SDS011;15375;48.540;9.268;2022-09-09T00:09:30;1.87;;;1.37;;
1344;SDS011;15375;48.540;9.268;2022-09-09T00:12:12;5.03;;;1.43;;
1344;SDS011;15375;48.540;9.268;2022-09-09T00:20:28;1.40;;;1.30;;
1344;SDS011;15375;48.540;9.268;2022-09-09T00:23:08;3.20;;;1.87;;
1344;SDS011;15375;48.540;9.268;2022-09-09T00:25:49;2.37;;;1.43;;
1344;SDS011;15375;48.540;9.268;2022-09-09T00:28:43;3.97;;;2.00;;
1344;SDS011;15375;48.540;9.268;2022-09-09T00:31:16;3.57;;;1.33;;
1344;SDS011;15375;48.540;9.268;2022-09-09T00:33:48;3.30;;;1.40;;
1344;SDS011;15375;48.540;9.268;2022-09-09T00:36:17;1.43;;;1.10;;
1344;SDS011;15375;48.540;9.268;2022-09-09T00:38:49;1.53;;;1.43;;
1344;SDS011;15375;48.540;9.268;2022-09-09T00:44:01;2.70;;;1.90;;
1344;SDS011;15375;48.540;9.268;2022-09-09T00:46:43;2.03;;;1.47;;
1344;SDS011;15375;48.540;9.268;2022-09-09T00:57:46;2.93;;;1.10;;
1344;SDS011;15375;48.540;9.268;2022-09-09T01:00:17;2.47;;;1.30;;
1344;SDS011;15375;48.540;9.268;2022-09-09T01:05:30;2.73;;;1.47;;
1344;SDS011;15375;48.540;9.268;2022-09-09T01:11:22;1.67;;;1.57;;
1344;SDS011;15375;48.540;9.268;2022-09-09T01:13:54;2.50;;;1.57;;
1344;SDS011;15375;48.540;9.268;2022-09-09T01:16:26;2.03;;;1.80;;
1344;SDS011;15375;48.540;9.268;2022-09-09T01:18:54;3.00;;;2.23;;
1344;SDS011;15375;48.540;9.268;2022-09-09T01:21:26;4.33;;;2.20;;
1344;SDS011;15375;48.540;9.268;2022-09-09T01:26:50;5.03;;;2.30;;
1344;SDS011;15375;48.540;9.268;2022-09-09T01:29:20;5.10;;;2.00;;
1344;SDS011;15375;48.540;9.268;2022-09-09T01:34:19;3.70;;;2.33;;
1344;SDS011;15375;48.540;9.268;2022-09-09T01:36:47;2.20;;;2.00;;
1344;SDS011;15375;48.540;9.268;2022-09-09T01:39:22;3.43;;;2.03;;
1344;SDS011;15375;48.540;9.268;2022-09-09T01:41:48;2.80;;;1.73;;
1344;SDS011;15375;48.540;9.268;2022-09-09T01:44:13;4.63;;;1.73;;
1344;SDS011;15375;48.540;9.268;2022-09-09T01:46:39;5.23;;;2.93;;
1344;SDS011;15375;48.540;9.268;2022-09-09T01:49:05;10.43;;;2.60;;
1344;SDS011;15375;48.540;9.268;2022-09-09T01:51:34;4.90;;;2.20;;
1344;SDS011;15375;48.540;9.268;2022-09-09T01:54:00;1.67;;;1.57;;
1344;SDS011;15375;48.540;9.268;2022-09-09T02:04:28;4.40;;;1.80;;
1344;SDS011;15375;48.540;9.268;2022-09-09T02:06:56;11.53;;;4.23;;
1344;SDS011;15375;48.540;9.268;2022-09-09T02:09:22;2.40;;;2.20;;
1344;SDS011;15375;48.540;9.268;2022-09-09T02:11:49;1.93;;;1.57;;
1344;SDS011;15375;48.540;9.268;2022-09-09T02:14:35;1.53;;;1.43;;
1344;SDS011;15375;48.540;9.268;2022-09-09T02:17:10;1.23;;;1.13;;
1344;SDS011;15375;48.540;9.268;2022-09-09T02:19:44;2.63;;;1.60;;
1344;SDS011;15375;48.540;9.268;2022-09-09T02:22:13;2.60;;;1.83;;
1344;SDS011;15375;48.540;9.268;2022-09-09T02:24:42;4.03;;;1.70;;
1344;SDS011;15375;48.540;9.268;2022-09-09T02:27:08;1.90;;;1.70;;
1344;SDS011;15375;48.540;9.268;2022-09-09T02:29:35;1.73;;;1.63;;
1344;SDS011;15375;48.540;9.268;2022-09-09T02:32:06;2.10;;;1.47;;
1344;SDS011;15375;48.540;9.268;2022-09-09T02:34:36;5.83;;;1.90;;
1344;SDS011;15375;48.540;9.268;2022-09-09T02:37:08;3.33;;;1.70;;
1344;SDS011;15375;48.540;9.268;2022-09-09T02:39:35;2.40;;;1.60;;
1344;SDS011;15375;48.540;9.268;2022-09-09T02:42:01;3.10;;;1.90;;
1344;SDS011;15375;48.540;9.268;2022-09-09T02:44:28;4.33;;;2.00;;
1344;SDS011;15375;48.540;9.268;2022-09-09T02:49:44;2.00;;;1.60;;
1344;SDS011;15375;48.540;9.268;2022-09-09T02:52:45;3.13;;;1.97;;
1344;SDS011;15375;48.540;9.268;2022-09-09T02:55:18;3.70;;;2.30;;
1344;SDS011;15375;48.540;9.268;2022-09-09T02:57:46;4.77;;;2.97;;
1344;SDS011;15375;48.540;9.268;2022-09-09T03:00:13;9.23;;;2.53;;
1344;SDS011;15375;48.540;9.268;2022-09-09T03:02:38;2.20;;;1.80;;
1344;SDS011;15375;48.540;9.268;2022-09-09T03:05:05;1.93;;;1.60;;
1344;SDS011;15375;48.540;9.268;2022-09-09T03:07:31;4.60;;;1.73;;
1344;SDS011;15375;48.540;9.268;2022-09-09T03:09:56;1.63;;;1.53;;
1344;SDS011;15375;48.540;9.268;2022-09-09T03:12:23;2.50;;;1.80;;
1344;SDS011;15375;48.540;9.268;2022-09-09T03:14:48;2.40;;;1.70;;
1344;SDS011;15375;48.540;9.268;2022-09-09T03:17:14;1.80;;;1.70;;
1344;SDS011;15375;48.540;9.268;2022-09-09T03:19:40;3.27;;;1.53;;
1344;SDS011;15375;48.540;9.268;2022-09-09T03:22:05;3.13;;;1.90;;
1344;SDS011;15375;48.540;9.268;2022-09-09T03:24:31;3.40;;;1.60;;
1344;SDS011;15375;48.540;9.268;2022-09-09T03:26:57;1.50;;;1.40;;
1344;SDS011;15375;48.540;9.268;2022-09-09T03:29:22;3.33;;;1.70;;
1344;SDS011;15375;48.540;9.268;2022-09-09T03:31:47;1.70;;;1.50;;
1344;SDS011;15375;48.540;9.268;2022-09-09T03:34:13;5.40;;;1.80;;
1344;SDS011;15375;48.540;9.268;2022-09-09T03:36:38;2.33;;;1.70;;
1344;SDS011;15375;48.540;9.268;2022-09-09T03:39:05;4.27;;;1.70;;
1344;SDS011;15375;48.540;9.268;2022-09-09T03:41:30;2.33;;;1.60;;
1344;SDS011;15375;48.540;9.268;2022-09-09T03:43:56;3.77;;;1.70;;
1344;SDS011;15375;48.540;9.268;2022-09-09T03:46:22;4.07;;;1.50;;
1344;SDS011;15375;48.540;9.268;2022-09-09T03:48:48;6.93;;;1.73;;
1344;SDS011;15375;48.540;9.268;2022-09-09T03:51:14;3.00;;;1.20;;
1344;SDS011;15375;48.540;9.268;2022-09-09T03:53:40;1.40;;;1.30;;
1344;SDS011;15375;48.540;9.268;2022-09-09T03:56:06;5.20;;;1.67;;
1344;SDS011;15375;48.540;9.268;2022-09-09T03:58:32;3.80;;;1.67;;
1344;SDS011;15375;48.540;9.268;2022-09-09T04:01:05;1.93;;;1.30;;
1344;SDS011;15375;48.540;9.268;2022-09-09T04:03:33;2.00;;;1.50;;
1344;SDS011;15375;48.540;9.268;2022-09-09T04:05:59;3.53;;;2.00;;
1344;SDS011;15375;48.540;9.268;2022-09-09T04:08:27;3.83;;;1.30;;
1344;SDS011;15375;48.540;9.268;2022-09-09T04:10:52;4.23;;;1.70;;
1344;SDS011;15375;48.540;9.268;2022-09-09T04:13:18;1.67;;;1.53;;
1344;SDS011;15375;48.540;9.268;2022-09-09T04:15:49;4.93;;;1.40;;
1344;SDS011;15375;48.540;9.268;2022-09-09T04:18:16;1.67;;;1.50;;
1344;SDS011;15375;48.540;9.268;2022-09-09T04:20:41;3.10;;;1.53;;
1344;SDS011;15375;48.540;9.268;2022-09-09T04:23:08;2.73;;;1.53;;
1344;SDS011;15375;48.540;9.268;2022-09-09T04:25:34;1.67;;;1.33;;
1344;SDS011;15375;48.540;9.268;2022-09-09T04:27:59;4.13;;;2.00;;
1344;SDS011;15375;48.540;9.268;2022-09-09T04:30:24;1.97;;;1.80;;
1344;SDS011;15375;48.540;9.268;2022-09-09T04:32:50;5.83;;;2.17;;
1344;SDS011;15375;48.540;9.268;2022-09-09T04:35:16;3.63;;;1.80;;
1344;SDS011;15375;48.540;9.268;2022-09-09T04:37:42;2.27;;;2.07;;
1344;SDS011;15375;48.540;9.268;2022-09-09T04:40:07;2.27;;;1.50;;
1344;SDS011;15375;48.540;9.268;2022-09-09T04:42:35;1.60;;;1.50;;
1344;SDS011;15375;48.540;9.268;2022-09-09T04:45:01;3.00;;;2.17;;
1344;SDS011;15375;48.540;9.268;2022-09-09T04:47:26;2.80;;;1.80;;
1344;SDS011;15375;48.540;9.268;2022-09-09T04:49:52;2.67;;;2.47;;
1344;SDS011;15375;48.540;9.268;2022-09-09T04:52:19;2.90;;;2.20;;
1344;SDS011;15375;48.540;9.268;2022-09-09T04:54:45;3.17;;;1.80;;
1344;SDS011;15375;48.540;9.268;2022-09-09T04:57:10;4.13;;;1.83;;
1344;SDS011;15375;48.540;9.268;2022-09-09T04:59:36;2.67;;;1.90;;
1344;SDS011;15375;48.540;9.268;2022-09-09T05:02:02;3.40;;;1.80;;
1344;SDS011;15375;48.540;9.268;2022-09-09T05:04:28;1.90;;;1.80;;
1344;SDS011;15375;48.540;9.268;2022-09-09T05:06:54;4.20;;;1.47;;
1344;SDS011;15375;48.540;9.268;2022-09-09T05:09:20;2.77;;;2.57;;
1344;SDS011;15375;48.540;9.268;2022-09-09T05:11:45;2.00;;;1.63;;
1344;SDS011;15375;48.540;9.268;2022-09-09T05:14:11;3.97;;;2.00;;
1344;SDS011;15375;48.540;9.268;2022-09-09T05:16:37;4.33;;;1.80;;
1344;SDS011;15375;48.540;9.268;2022-09-09T05:19:02;3.00;;;1.90;;
1344;SDS011;15375;48.540;9.268;2022-09-09T05:21:28;4.90;;;2.93;;
1344;SDS011;15375;48.540;9.268;2022-09-09T05:23:55;2.77;;;2.00;;
1344;SDS011;15375;48.540;9.268;2022-09-09T05:26:21;3.43;;;2.07;;
1344;SDS011;15375;48.540;9.268;2022-09-09T05:28:47;2.83;;;2.37;;
1344;SDS011;15375;48.540;9.268;2022-09-09T05:31:14;2.80;;;1.90;;
1344;SDS011;15375;48.540;9.268;2022-09-09T05:33:41;2.60;;;1.87;;
1344;SDS011;15375;48.540;9.268;2022-09-09T05:36:11;3.47;;;2.00;;
1344;SDS011;15375;48.540;9.268;2022-09-09T05:38:38;3.23;;;1.93;;
1344;SDS011;15375;48.540;9.268;2022-09-09T05:41:04;4.00;;;2.10;;
1344;SDS011;15375;48.540;9.268;2022-09-09T05:43:30;2.23;;;1.70;;
1344;SDS011;15375;48.540;9.268;2022-09-09T05:46:05;3.03;;;1.93;;
1344;SDS011;15375;48.540;9.268;2022-09-09T05:48:43;7.83;;;2.07;;
1344;SDS011;15375;48.540;9.268;2022-09-09T05:51:12;2.83;;;2.23;;
1344;SDS011;15375;48.540;9.268;2022-09-09T05:53:42;3.47;;;1.97;;
1344;SDS011;15375;48.540;9.268;2022-09-09T05:56:10;4.33;;;1.90;;
1344;SDS011;15375;48.540;9.268;2022-09-09T05:58:43;2.63;;;2.13;;
1344;SDS011;15375;48.540;9.268;2022-09-09T06:01:09;5.10;;;2.57;;
1344;SDS011;15375;48.540;9.268;2022-09-09T06:03:38;6.03;;;1.90;;
1344;SDS011;15375;48.540;9.268;2022-09-09T06:06:05;2.43;;;2.23;;
1344;SDS011;15375;48.540;9.268;2022-09-09T06:08:37;4.33;;;2.00;;
1344;SDS011;15375;48.540;9.268;2022-09-09T06:11:05;3.27;;;2.07;;
1344;SDS011;15375;48.540;9.268;2022-09-09T06:13:32;6.23;;;2.27;;
1344;SDS011;15375;48.540;9.268;2022-09-09T06:15:57;8.27;;;3.60;;
1344;SDS011;15375;48.540;9.268;2022-09-09T06:18:23;4.73;;;3.30;;
1344;SDS011;15375;48.540;9.268;2022-09-09T06:20:57;5.67;;;3.50;;
1344;SDS011;15375;48.540;9.268;2022-09-09T06:23:28;7.70;;;3.53;;
1344;SDS011;15375;48.540;9.268;2022-09-09T06:26:00;4.23;;;2.80;;
1344;SDS011;15375;48.540;9.268;2022-09-09T06:28:31;10.10;;;3.50;;
1344;SDS011;15375;48.540;9.268;2022-09-09T06:31:01;8.77;;;3.70;;
1344;SDS011;15375;48.540;9.268;2022-09-09T06:33:32;6.50;;;3.10;;
1344;SDS011;15375;48.540;9.268;2022-09-09T06:36:13;9.40;;;3.30;;
1344;SDS011;15375;48.540;9.268;2022-09-09T06:38:40;5.53;;;3.30;;
1344;SDS011;15375;48.540;9.268;2022-09-09T06:41:07;9.00;;;3.60;;
1344;SDS011;15375;48.540;9.268;2022-09-09T06:43:34;6.90;;;3.20;;
1344;SDS011;15375;48.540;9.268;2022-09-09T06:48:39;6.50;;;3.27;;
1344;SDS011;15375;48.540;9.268;2022-09-09T06:51:13;8.00;;;3.80;;
1344;SDS011;15375;48.540;9.268;2022-09-09T06:53:41;7.10;;;3.50;;
1344;SDS011;15375;48.540;9.268;2022-09-09T06:58:36;4.37;;;3.47;;
1344;SDS011;15375;48.540;9.268;2022-09-09T07:01:08;5.77;;;3.20;;
1344;SDS011;15375;48.540;9.268;2022-09-09T07:03:33;3.70;;;3.10;;
1344;SDS011;15375;48.540;9.268;2022-09-09T07:06:00;3.60;;;2.30;;
1344;SDS011;15375;48.540;9.268;2022-09-09T07:08:26;7.23;;;3.33;;
1344;SDS011;15375;48.540;9.268;2022-09-09T07:10:52;4.20;;;2.43;;
1344;SDS011;15375;48.540;9.268;2022-09-09T07:13:26;3.13;;;2.30;;
1344;SDS011;15375;48.540;9.268;2022-09-09T07:15:52;2.40;;;2.20;;
1344;SDS011;15375;48.540;9.268;2022-09-09T07:18:18;5.20;;;2.17;;
1344;SDS011;15375;48.540;9.268;2022-09-09T07:20:52;14.50;;;3.07;;
1344;SDS011;15375;48.540;9.268;2022-09-09T07:23:19;7.63;;;2.30;;
1344;SDS011;15375;48.540;9.268;2022-09-09T07:25:44;5.27;;;1.93;;
1344;SDS011;15375;48.540;9.268;2022-09-09T07:28:10;4.73;;;2.00;;
1344;SDS011;15375;48.540;9.268;2022-09-09T07:30:36;2.47;;;1.57;;
1344;SDS011;15375;48.540;9.268;2022-09-09T07:33:01;2.50;;;1.97;;
1344;SDS011;15375;48.540;9.268;2022-09-09T07:35:28;2.77;;;1.87;;
1344;SDS011;15375;48.540;9.268;2022-09-09T07:37:53;4.30;;;1.70;;
1344;SDS011;15375;48.540;9.268;2022-09-09T07:40:19;5.40;;;2.00;;
1344;SDS011;15375;48.540;9.268;2022-09-09T07:42:46;2.80;;;2.60;;
1344;SDS011;15375;48.540;9.268;2022-09-09T07:45:12;2.23;;;1.80;;
1344;SDS011;15375;48.540;9.268;2022-09-09T07:47:38;2.63;;;1.90;;
1344;SDS011;15375;48.540;9.268;2022-09-09T07:50:03;3.73;;;2.10;;
1344;SDS011;15375;48.540;9.268;2022-09-09T07:52:29;5.03;;;2.47;;
1344;SDS011;15375;48.540;9.268;2022-09-09T07:54:54;2.13;;;1.33;;
1344;SDS011;15375;48.540;9.268;2022-09-09T07:57:21;2.97;;;1.97;;
1344;SDS011;15375;48.540;9.268;2022-09-09T07:59:46;2.27;;;1.40;;
1344;SDS011;15375;48.540;9.268;2022-09-09T08:02:12;2.60;;;1.40;;
1344;SDS011;15375;48.540;9.268;2022-09-09T08:04:37;1.47;;;1.30;;
1344;SDS011;15375;48.540;9.268;2022-09-09T08:07:02;2.70;;;1.80;;
1344;SDS011;15375;48.540;9.268;2022-09-09T08:09:28;3.70;;;1.30;;
1344;SDS011;15375;48.540;9.268;2022-09-09T08:11:54;3.67;;;1.47;;
1344;SDS011;15375;48.540;9.268;2022-09-09T08:14:21;4.60;;;1.30;;
1344;SDS011;15375;48.540;9.268;2022-09-09T08:16:48;1.83;;;1.50;;
1344;SDS011;15375;48.540;9.268;2022-09-09T08:19:15;2.93;;;1.60;;
1344;SDS011;15375;48.540;9.268;2022-09-09T08:21:41;3.63;;;1.53;;
1344;SDS011;15375;48.540;9.268;2022-09-09T08:24:07;4.03;;;1.50;;
1344;SDS011;15375;48.540;9.268;2022-09-09T08:26:39;4.23;;;1.43;;
1344;SDS011;15375;48.540;9.268;2022-09-09T08:29:07;1.23;;;1.10;;
1344;SDS011;15375;48.540;9.268;2022-09-09T08:31:34;3.87;;;1.47;;
1344;SDS011;15375;48.540;9.268;2022-09-09T08:34:02;2.53;;;1.37;;
1344;SDS011;15375;48.540;9.268;2022-09-09T08:36:33;2.67;;;1.63;;
1344;SDS011;15375;48.540;9.268;2022-09-09T08:39:01;2.17;;;1.30;;
1344;SDS011;15375;48.540;9.268;2022-09-09T08:50:21;7.03;;;2.10;;
1344;SDS011;15375;48.540;9.268;2022-09-09T08:55:56;0.97;;;0.97;;
1344;SDS011;15375;48.540;9.268;2022-09-09T08:58:30;1.90;;;1.60;;
1344;SDS011;15375;48.540;9.268;2022-09-09T09:01:00;2.37;;;1.40;;
1344;SDS011;15375;48.540;9.268;2022-09-09T09:06:22;2.03;;;1.17;;
1344;SDS011;15375;48.540;9.268;2022-09-09T09:11:43;4.30;;;1.93;;
1344;SDS011;15375;48.540;9.268;2022-09-09T09:14:18;1.27;;;1.10;;
1344;SDS011;15375;48.540;9.268;2022-09-09T09:19:28;3.33;;;1.43;;
1344;SDS011;15375;48.540;9.268;2022-09-09T09:22:10;3.37;;;1.00;;
1344;SDS011;15375;48.540;9.268;2022-09-09T09:30:22;3.10;;;1.37;;
1344;SDS011;15375;48.540;9.268;2022-09-09T09:35:20;3.43;;;1.50;;
1344;SDS011;15375;48.540;9.268;2022-09-09T09:37:46;1.83;;;1.20;;
1344;SDS011;15375;48.540;9.268;2022-09-09T09:40:14;2.30;;;1.50;;
1344;SDS011;15375;48.540;9.268;2022-09-09T09:42:57;2.13;;;1.10;;
1344;SDS011;15375;48.540;9.268;2022-09-09T09:45:27;2.20;;;0.90;;
1344;SDS011;15375;48.540;9.268;2022-09-09T09:48:01;1.13;;;0.83;;
1344;SDS011;15375;48.540;9.268;2022-09-09T09:50:29;3.23;;;1.63;;
1344;SDS011;15375;48.540;9.268;2022-09-09T09:52:57;3.07;;;1.10;;
1344;SDS011;15375;48.540;9.268;2022-09-09T09:55:30;2.83;;;1.10;;
1344;SDS011;15375;48.540;9.268;2022-09-09T09:58:02;2.70;;;1.20;;
1344;SDS011;15375;48.540;9.268;2022-09-09T10:00:32;1.80;;;1.30;;
1344;SDS011;15375;48.540;9.268;2022-09-09T10:03:00;5.00;;;1.40;;
1344;SDS011;15375;48.540;9.268;2022-09-09T10:05:29;2.60;;;1.33;;
1344;SDS011;15375;48.540;9.268;2022-09-09T10:14:03;1.70;;;0.87;;
1344;SDS011;15375;48.540;9.268;2022-09-09T10:19:19;2.33;;;1.30;;
1344;SDS011;15375;48.540;9.268;2022-09-09T10:27:28;3.10;;;1.20;;
1344;SDS011;15375;48.540;9.268;2022-09-09T10:30:19;2.20;;;0.90;;
1344;SDS011;15375;48.540;9.268;2022-09-09T10:38:29;2.10;;;1.00;;
1344;SDS011;15375;48.540;9.268;2022-09-09T10:44:04;2.57;;;1.37;;
1344;SDS011;15375;48.540;9.268;2022-09-09T10:46:55;5.30;;;1.10;;
1344;SDS011;15375;48.540;9.268;2022-09-09T10:55:19;1.53;;;0.90;;
1344;SDS011;15375;48.540;9.268;2022-09-09T10:57:50;1.47;;;1.10;;
1344;SDS011;15375;48.540;9.268;2022-09-09T11:00:21;2.90;;;0.80;;
1344;SDS011;15375;48.540;9.268;2022-09-09T11:03:00;1.40;;;0.90;;
1344;SDS011;15375;48.540;9.268;2022-09-09T11:05:28;2.23;;;0.90;;
1344;SDS011;15375;48.540;9.268;2022-09-09T11:08:01;2.20;;;1.00;;
1344;SDS011;15375;48.540;9.268;2022-09-09T11:10:44;5.20;;;1.30;;
1344;SDS011;15375;48.540;9.268;2022-09-09T11:19:13;1.47;;;0.87;;
1344;SDS011;15375;48.540;9.268;2022-09-09T11:21:45;2.80;;;0.93;;
1344;SDS011;15375;48.540;9.268;2022-09-09T11:24:27;2.37;;;1.03;;
1344;SDS011;15375;48.540;9.268;2022-09-09T11:26:55;1.60;;;1.00;;
1344;SDS011;15375;48.540;9.268;2022-09-09T11:40:38;4.13;;;1.27;;
1344;SDS011;15375;48.540;9.268;2022-09-09T11:43:05;2.40;;;1.17;;
1344;SDS011;15375;48.540;9.268;2022-09-09T11:45:37;1.80;;;0.90;;
1344;SDS011;15375;48.540;9.268;2022-09-09T11:48:05;3.93;;;0.90;;
1344;SDS011;15375;48.540;9.268;2022-09-09T11:50:47;2.80;;;1.00;;
1344;SDS011;15375;48.540;9.268;2022-09-09T11:53:23;1.90;;;1.07;;
1344;SDS011;15375;48.540;9.268;2022-09-09T11:58:26;1.17;;;0.70;;
1344;SDS011;15375;48.540;9.268;2022-09-09T12:00:57;1.23;;;1.03;;
1344;SDS011;15375;48.540;9.268;2022-09-09T12:06:20;2.10;;;0.70;;
1344;SDS011;15375;48.540;9.268;2022-09-09T12:08:53;3.23;;;1.10;;
1344;SDS011;15375;48.540;9.268;2022-09-09T12:11:23;4.03;;;1.03;;
1344;SDS011;15375;48.540;9.268;2022-09-09T12:13:54;1.83;;;0.80;;
1344;SDS011;15375;48.540;9.268;2022-09-09T12:16:53;1.70;;;0.67;;
1344;SDS011;15375;48.540;9.268;2022-09-09T12:19:15;1.60;;;1.03;;
1344;SDS011;15375;48.540;9.268;2022-09-09T12:25:06;5.40;;;0.80;;
1344;SDS011;15375;48.540;9.268;2022-09-09T12:27:46;2.20;;;1.03;;
1344;SDS011;15375;48.540;9.268;2022-09-09T12:30:55;1.30;;;1.00;;
1344;SDS011;15375;48.540;9.268;2022-09-09T12:33:33;2.10;;;0.60;;
1344;SDS011;15375;48.540;9.268;2022-09-09T12:36:04;1.60;;;0.80;;
1344;SDS011;15375;48.540;9.268;2022-09-09T12:38:37;1.03;;;0.87;;
1344;SDS011;15375;48.540;9.268;2022-09-09T12:41:04;2.33;;;0.90;;
1344;SDS011;15375;48.540;9.268;2022-09-09T12:43:30;1.67;;;0.80;;
1344;SDS011;15375;48.540;9.268;2022-09-09T12:45:57;1.73;;;1.07;;
1344;SDS011;15375;48.540;9.268;2022-09-09T12:48:29;4.00;;;0.90;;
1344;SDS011;15375;48.540;9.268;2022-09-09T12:50:59;2.00;;;1.00;;
1344;SDS011;15375;48.540;9.268;2022-09-09T12:53:29;2.97;;;1.67;;
1344;SDS011;15375;48.540;9.268;2022-09-09T12:55:58;4.13;;;1.17;;
1344;SDS011;15375;48.540;9.268;2022-09-09T12:58:27;1.70;;;0.80;;
1344;SDS011;15375;48.540;9.268;2022-09-09T13:00:58;1.43;;;1.00;;
1344;SDS011;15375;48.540;9.268;2022-09-09T13:03:24;3.53;;;1.00;;
1344;SDS011;15375;48.540;9.268;2022-09-09T13:05:50;1.67;;;0.93;;
1344;SDS011;15375;48.540;9.268;2022-09-09T13:08:17;3.77;;;1.50;;
1344;SDS011;15375;48.540;9.268;2022-09-09T13:13:35;2.77;;;1.13;;
1344;SDS011;15375;48.540;9.268;2022-09-09T13:16:02;2.17;;;1.10;;
1344;SDS011;15375;48.540;9.268;2022-09-09T13:18:31;1.93;;;1.00;;
1344;SDS011;15375;48.540;9.268;2022-09-09T13:20:58;1.80;;;0.90;;
1344;SDS011;15375;48.540;9.268;2022-09-09T13:23:35;5.07;;;1.00;;
1344;SDS011;15375;48.540;9.268;2022-09-09T13:26:04;1.17;;;0.83;;
1344;SDS011;15375;48.540;9.268;2022-09-09T13:28:31;1.80;;;0.83;;
1344;SDS011;15375;48.540;9.268;2022-09-09T13:30:58;2.03;;;0.80;;
1344;SDS011;15375;48.540;9.268;2022-09-09T13:33:32;2.73;;;1.20;;
1344;SDS011;15375;48.540;9.268;2022-09-09T13:38:29;3.57;;;1.23;;
1344;SDS011;15375;48.540;9.268;2022-09-09T13:41:18;1.73;;;1.10;;
1344;SDS011;15375;48.540;9.268;2022-09-09T13:43:46;1.33;;;0.80;;
1344;SDS011;15375;48.540;9.268;2022-09-09T13:49:22;2.70;;;1.10;;
1344;SDS011;15375;48.540;9.268;2022-09-09T13:51:48;2.60;;;1.10;;
1344;SDS011;15375;48.540;9.268;2022-09-09T13:54:16;5.67;;;1.20;;
1344;SDS011;15375;48.540;9.268;2022-09-09T13:56:43;3.13;;;1.10;;
1344;SDS011;15375;48.540;9.268;2022-09-09T13:59:10;0.93;;;0.80;;
1344;SDS011;15375;48.540;9.268;2022-09-09T14:01:37;1.10;;;0.80;;
1344;SDS011;15375;48.540;9.268;2022-09-09T14:04:03;1.00;;;0.90;;
1344;SDS011;15375;48.540;9.268;2022-09-09T14:06:30;1.50;;;0.70;;
1344;SDS011;15375;48.540;9.268;2022-09-09T14:08:57;3.80;;;1.03;;
1344;SDS011;15375;48.540;9.268;2022-09-09T14:11:22;2.57;;;1.20;;
1344;SDS011;15375;48.540;9.268;2022-09-09T14:13:48;1.30;;;0.90;;
1344;SDS011;15375;48.540;9.268;2022-09-09T14:16:15;2.90;;;0.87;;
1344;SDS011;15375;48.540;9.268;2022-09-09T14:18:43;2.03;;;0.80;;
1344;SDS011;15375;48.540;9.268;2022-09-09T14:21:10;0.97;;;0.90;;
1344;SDS011;15375;48.540;9.268;2022-09-09T14:23:36;1.13;;;0.70;;
1344;SDS011;15375;48.540;9.268;2022-09-09T14:26:03;1.20;;;0.80;;
1344;SDS011;15375;48.540;9.268;2022-09-09T14:28:29;1.33;;;0.87;;
1344;SDS011;15375;48.540;9.268;2022-09-09T14:30:54;4.50;;;0.87;;
1344;SDS011;15375;48.540;9.268;2022-09-09T14:33:19;1.47;;;0.60;;
1344;SDS011;15375;48.540;9.268;2022-09-09T14:35:45;1.10;;;0.90;;
1344;SDS011;15375;48.540;9.268;2022-09-09T14:38:10;3.00;;;0.90;;
1344;SDS011;15375;48.540;9.268;2022-09-09T14:40:36;1.20;;;0.73;;
1344;SDS011;15375;48.540;9.268;2022-09-09T14:43:03;4.53;;;1.00;;
1344;SDS011;15375;48.540;9.268;2022-09-09T14:45:29;1.60;;;1.13;;
1344;SDS011;15375;48.540;9.268;2022-09-09T14:47:55;3.30;;;1.10;;
1344;SDS011;15375;48.540;9.268;2022-09-09T14:50:21;1.63;;;0.83;;
1344;SDS011;15375;48.540;9.268;2022-09-09T14:52:47;0.80;;;0.77;;
1344;SDS011;15375;48.540;9.268;2022-09-09T14:55:13;3.90;;;0.90;;
1344;SDS011;15375;48.540;9.268;2022-09-09T14:57:38;2.50;;;0.97;;
1344;SDS011;15375;48.540;9.268;2022-09-09T15:00:05;1.63;;;1.00;;
1344;SDS011;15375;48.540;9.268;2022-09-09T15:02:32;0.60;;;0.60;;
1344;SDS011;15375;48.540;9.268;2022-09-09T15:04:58;2.37;;;1.17;;
1344;SDS011;15375;48.540;9.268;2022-09-09T15:07:23;1.83;;;0.97;;
1344;SDS011;15375;48.540;9.268;2022-09-09T15:09:49;0.70;;;0.63;;
1344;SDS011;15375;48.540;9.268;2022-09-09T15:12:15;2.00;;;0.77;;
1344;SDS011;15375;48.540;9.268;2022-09-09T15:14:43;1.50;;;1.00;;
1344;SDS011;15375;48.540;9.268;2022-09-09T15:17:09;4.60;;;2.80;;
1344;SDS011;15375;48.540;9.268;2022-09-09T15:19:34;2.63;;;1.77;;
1344;SDS011;15375;48.540;9.268;2022-09-09T15:21:59;3.87;;;0.97;;
1344;SDS011;15375;48.540;9.268;2022-09-09T15:24:25;1.00;;;0.73;;
1344;SDS011;15375;48.540;9.268;2022-09-09T15:26:51;2.60;;;1.20;;
1344;SDS011;15375;48.540;9.268;2022-09-09T15:29:17;2.40;;;0.90;;
1344;SDS011;15375;48.540;9.268;2022-09-09T15:31:43;1.30;;;0.70;;
1344;SDS011;15375;48.540;9.268;2022-09-09T15:34:08;2.63;;;0.80;;
1344;SDS011;15375;48.540;9.268;2022-09-09T15:36:35;3.47;;;1.03;;
1344;SDS011;15375;48.540;9.268;2022-09-09T15:39:02;2.07;;;0.80;;
1344;SDS011;15375;48.540;9.268;2022-09-09T15:41:30;2.07;;;0.97;;
1344;SDS011;15375;48.540;9.268;2022-09-09T15:43:59;2.40;;;1.03;;
1344;SDS011;15375;48.540;9.268;2022-09-09T15:47:01;1.27;;;1.00;;
1344;SDS011;15375;48.540;9.268;2022-09-09T15:49:23;2.60;;;0.80;;
1344;SDS011;15375;48.540;9.268;2022-09-09T15:51:57;5.63;;;2.33;;
1344;SDS011;15375;48.540;9.268;2022-09-09T15:54:28;3.50;;;1.00;;
1344;SDS011;15375;48.540;9.268;2022-09-09T15:56:58;1.70;;;1.10;;
1344;SDS011;15375;48.540;9.268;2022-09-09T15:59:26;2.07;;;0.83;;
1344;SDS011;15375;48.540;9.268;2022-09-09T16:01:53;1.47;;;0.73;;
1344;SDS011;15375;48.540;9.268;2022-09-09T16:04:20;1.80;;;0.77;;
1344;SDS011;15375;48.540;9.268;2022-09-09T16:06:58;1.43;;;0.70;;
1344;SDS011;15375;48.540;9.268;2022-09-09T16:09:25;0.87;;;0.80;;
1344;SDS011;15375;48.540;9.268;2022-09-09T16:11:52;0.77;;;0.60;;
1344;SDS011;15375;48.540;9.268;2022-09-09T16:14:20;0.90;;;0.50;;
1344;SDS011;15375;48.540;9.268;2022-09-09T16:16:50;1.90;;;0.50;;
1344;SDS011;15375;48.540;9.268;2022-09-09T16:19:15;0.83;;;0.47;;
1344;SDS011;15375;48.540;9.268;2022-09-09T16:21:42;0.70;;;0.50;;
1344;SDS011;15375;48.540;9.268;2022-09-09T16:24:10;1.03;;;0.60;;
1344;SDS011;15375;48.540;9.268;2022-09-09T16:26:39;1.27;;;1.17;;
1344;SDS011;15375;48.540;9.268;2022-09-09T16:29:09;0.70;;;0.53;;
1344;SDS011;15375;48.540;9.268;2022-09-09T16:31:35;1.57;;;1.30;;
1344;SDS011;15375;48.540;9.268;2022-09-09T16:34:01;3.33;;;0.93;;
1344;SDS011;15375;48.540;9.268;2022-09-09T16:36:28;0.80;;;0.60;;
1344;SDS011;15375;48.540;9.268;2022-09-09T16:38:56;0.83;;;0.60;;
1344;SDS011;15375;48.540;9.268;2022-09-09T16:41:24;2.20;;;0.50;;
1344;SDS011;15375;48.540;9.268;2022-09-09T16:43:54;2.50;;;0.70;;
1344;SDS011;15375;48.540;9.268;2022-09-09T16:46:20;1.20;;;0.70;;
1344;SDS011;15375;48.540;9.268;2022-09-09T16:48:47;2.60;;;0.67;;
1344;SDS011;15375;48.540;9.268;2022-09-09T16:51:17;2.17;;;0.70;;
1344;SDS011;15375;48.540;9.268;2022-09-09T16:53:48;1.10;;;0.63;;
1344;SDS011;15375;48.540;9.268;2022-09-09T16:56:15;3.50;;;0.83;;
1344;SDS011;15375;48.540;9.268;2022-09-09T16:58:43;1.23;;;0.80;;
1344;SDS011;15375;48.540;9.268;2022-09-09T17:01:14;1.50;;;0.87;;
1344;SDS011;15375;48.540;9.268;2022-09-09T17:03:39;1.53;;;0.60;;
1344;SDS011;15375;48.540;9.268;2022-09-09T17:06:12;6.93;;;1.00;;
1344;SDS011;15375;48.540;9.268;2022-09-09T17:08:39;1.13;;;0.60;;
1344;SDS011;15375;48.540;9.268;2022-09-09T17:11:12;2.23;;;1.10;;
1344;SDS011;15375;48.540;9.268;2022-09-09T17:13:43;2.30;;;1.00;;
1344;SDS011;15375;48.540;9.268;2022-09-09T17:16:10;2.60;;;1.10;;
1344;SDS011;15375;48.540;9.268;2022-09-09T17:18:36;4.90;;;0.90;;
1344;SDS011;15375;48.540;9.268;2022-09-09T17:21:05;2.93;;;1.27;;
1344;SDS011;15375;48.540;9.268;2022-09-09T17:23:33;2.00;;;1.00;;
1344;SDS011;15375;48.540;9.268;2022-09-09T17:25:59;2.40;;;0.80;;
1344;SDS011;15375;48.540;9.268;2022-09-09T17:28:25;3.43;;;1.20;;
1344;SDS011;15375;48.540;9.268;2022-09-09T17:30:56;1.40;;;0.77;;